createdAt,value
2018-02-15T00:00:18.951Z,13.50
2018-02-15T00:02:46.475Z,14.10
2018-02-15T00:05:14.393Z,13.93
2018-02-15T00:07:42.701Z,13.00
2018-02-15T00:10:10.979Z,14.03
2018-02-15T00:12:39.242Z,13.17
2018-02-15T00:15:07.543Z,11.63
2018-02-15T00:17:35.819Z,12.50
2018-02-15T00:20:03.437Z,12.83
2018-02-15T00:22:30.947Z,14.80
2018-02-15T00:24:58.455Z,13.73
2018-02-15T00:27:25.971Z,13.30
2018-02-15T00:29:53.487Z,12.47
2018-02-15T00:32:21.163Z,17.07
2018-02-15T00:34:49.423Z,14.33
2018-02-15T00:37:16.926Z,16.30
2018-02-15T00:39:44.447Z,17.37
2018-02-15T00:42:11.953Z,15.13
2018-02-15T00:44:39.471Z,17.17
2018-02-15T00:47:07.742Z,14.80
2018-02-15T00:49:36.035Z,14.37
2018-02-15T00:52:04.319Z,15.53
2018-02-15T00:54:31.838Z,16.03
2018-02-15T00:57:00.242Z,16.40
2018-02-15T00:59:29.328Z,16.23
2018-02-15T01:01:57.578Z,17.67
2018-02-15T01:04:26.076Z,16.67
2018-02-15T01:06:53.590Z,16.40
2018-02-15T01:09:21.093Z,18.33
2018-02-15T01:11:48.610Z,17.23
2018-02-15T01:14:16.108Z,17.23
2018-02-15T01:16:43.630Z,14.73
2018-02-15T01:19:11.131Z,14.00
2018-02-15T01:21:39.414Z,16.90
2018-02-15T01:24:07.667Z,16.30
2018-02-15T01:26:35.183Z,15.60
2018-02-15T01:29:02.801Z,14.63
2018-02-15T01:31:31.088Z,15.97
2018-02-15T01:34:00.135Z,16.37
2018-02-15T01:36:28.432Z,16.53
2018-02-15T01:38:55.937Z,15.33
2018-02-15T01:41:23.461Z,16.87
2018-02-15T01:43:51.759Z,15.97
2018-02-15T01:46:20.007Z,15.83
2018-02-15T01:48:47.516Z,13.03
2018-02-15T01:51:15.038Z,14.73
2018-02-15T01:53:43.296Z,13.57
2018-02-15T01:56:10.911Z,13.23
2018-02-15T01:58:38.427Z,16.67
2018-02-15T02:01:06.678Z,14.90
2018-02-15T02:03:34.174Z,14.87
2018-02-15T02:06:01.725Z,15.57
2018-02-15T02:08:30.014Z,14.77
2018-02-15T02:10:57.516Z,13.60
2018-02-15T02:13:25.019Z,14.03
2018-02-15T02:15:52.675Z,14.60
2018-02-15T02:18:20.956Z,16.33
2018-02-15T02:20:49.231Z,14.27
2018-02-15T02:23:17.502Z,14.90
2018-02-15T02:25:45.766Z,15.10
2018-02-15T02:28:14.042Z,13.90
2018-02-15T02:30:42.318Z,16.27
2018-02-15T02:33:10.595Z,14.47
2018-02-15T02:35:38.870Z,13.80
2018-02-15T02:38:07.139Z,15.07
2018-02-15T02:40:35.422Z,15.80
2018-02-15T02:43:03.799Z,17.93
2018-02-15T02:45:32.098Z,16.77
2018-02-15T02:47:59.602Z,16.20
2018-02-15T02:50:27.118Z,16.47
2018-02-15T02:52:54.630Z,14.97
2018-02-15T02:55:22.128Z,15.73
2018-02-15T02:57:49.670Z,14.30
2018-02-15T03:00:17.943Z,15.27
2018-02-15T03:02:46.228Z,16.80
2018-02-15T03:05:13.747Z,18.43
2018-02-15T03:07:42.126Z,15.23
2018-02-15T03:10:09.985Z,15.73
2018-02-15T03:12:38.263Z,16.00
2018-02-15T03:15:05.774Z,14.83
2018-02-15T03:17:33.282Z,16.00
2018-02-15T03:20:00.791Z,14.60
2018-02-15T03:22:29.030Z,15.47
2018-02-15T03:24:56.532Z,15.10
2018-02-15T03:27:24.067Z,15.63
2018-02-15T03:29:52.346Z,15.20
2018-02-15T03:32:20.611Z,16.30
2018-02-15T03:34:48.897Z,15.00
2018-02-15T03:37:17.197Z,14.30
2018-02-15T03:39:44.703Z,13.40
2018-02-15T03:42:12.222Z,12.53
2018-02-15T03:44:39.723Z,13.20
2018-02-15T03:47:07.251Z,15.80
2018-02-15T03:49:34.822Z,13.93
2018-02-15T03:52:02.369Z,13.53
2018-02-15T03:54:29.876Z,14.27
2018-02-15T03:56:57.397Z,17.33
2018-02-15T03:59:24.940Z,15.93
2018-02-15T04:01:53.407Z,15.17
2018-02-15T04:04:20.920Z,15.30
2018-02-15T04:06:49.404Z,14.67
2018-02-15T04:09:16.919Z,15.87
2018-02-15T04:11:44.567Z,15.43
2018-02-15T04:14:12.079Z,15.70
2018-02-15T04:16:39.592Z,17.07
2018-02-15T04:19:07.145Z,16.67
2018-02-15T04:21:34.698Z,14.67
2018-02-15T04:24:02.208Z,15.13
2018-02-15T04:26:29.718Z,17.50
2018-02-15T04:28:57.214Z,15.90
2018-02-15T04:31:24.743Z,17.07
2018-02-15T04:33:52.242Z,16.53
2018-02-15T04:36:19.747Z,17.83
2018-02-15T04:38:47.285Z,17.40
2018-02-15T04:41:15.557Z,16.17
2018-02-15T04:43:43.855Z,17.03
2018-02-15T04:46:11.365Z,17.27
2018-02-15T04:48:38.863Z,17.03
2018-02-15T04:51:06.396Z,17.23
2018-02-15T04:53:34.957Z,18.10
2018-02-15T04:58:25.200Z,17.73
2018-02-15T05:00:53.527Z,17.03
2018-02-15T05:03:21.030Z,18.20
2018-02-15T05:05:49.291Z,18.00
2018-02-15T05:08:16.815Z,18.20
2018-02-15T05:10:44.310Z,19.00
2018-02-15T05:13:11.814Z,16.73
2018-02-15T05:15:39.307Z,18.70
2018-02-15T05:18:06.827Z,18.80
2018-02-15T05:20:34.339Z,17.93
2018-02-15T05:23:01.826Z,19.07
2018-02-15T05:25:30.106Z,18.23
2018-02-15T05:27:57.629Z,19.97
2018-02-15T05:30:25.131Z,19.97
2018-02-15T05:32:53.112Z,18.77
2018-02-15T05:35:20.632Z,19.87
2018-02-15T05:37:48.936Z,20.00
2018-02-15T05:40:16.456Z,19.33
2018-02-15T05:42:44.012Z,19.73
2018-02-15T05:45:11.521Z,20.93
2018-02-15T05:47:39.038Z,20.77
2018-02-15T05:50:07.331Z,18.90
2018-02-15T05:52:34.867Z,19.53
2018-02-15T05:55:02.371Z,19.50
2018-02-15T05:57:29.881Z,19.20
2018-02-15T05:59:57.408Z,18.97
2018-02-15T06:02:24.913Z,18.73
2018-02-15T06:04:53.179Z,19.13
2018-02-15T06:07:20.683Z,21.17
2018-02-15T06:09:49.183Z,20.07
2018-02-15T06:12:16.748Z,19.03
2018-02-15T06:14:45.600Z,19.70
2018-02-15T06:17:13.915Z,19.27
2018-02-15T06:19:42.585Z,20.40
2018-02-15T06:22:10.126Z,18.70
2018-02-15T06:24:38.580Z,19.60
2018-02-15T06:27:06.877Z,19.63
2018-02-15T06:29:34.425Z,16.47
2018-02-15T06:32:02.018Z,17.07
2018-02-15T06:34:29.547Z,16.73
2018-02-15T06:36:57.095Z,16.90
2018-02-15T06:39:25.898Z,18.23
2018-02-15T06:41:54.189Z,17.43
2018-02-15T06:44:21.732Z,15.47
2018-02-15T06:46:49.279Z,17.30
2018-02-15T06:49:17.729Z,17.93
2018-02-15T06:51:46.032Z,17.50
2018-02-15T06:54:14.331Z,15.93
2018-02-15T06:56:41.865Z,17.03
2018-02-15T06:59:10.257Z,20.50
2018-02-15T07:01:38.558Z,17.67
2018-02-15T07:04:06.123Z,16.83
2018-02-15T07:06:33.668Z,17.60
2018-02-15T07:09:01.201Z,16.37
2018-02-15T07:11:29.556Z,18.53
2018-02-15T07:13:57.095Z,18.03
2018-02-15T07:16:24.627Z,17.97
2018-02-15T07:18:52.163Z,18.50
2018-02-15T07:21:20.458Z,17.80
2018-02-15T07:23:48.852Z,17.00
2018-02-15T07:26:16.386Z,18.17
2018-02-15T07:28:43.962Z,17.10
2018-02-15T07:31:11.609Z,15.03
2018-02-15T07:33:39.182Z,15.87
2018-02-15T07:36:06.736Z,15.10
2018-02-15T07:38:34.283Z,15.87
2018-02-15T07:41:02.571Z,15.47
2018-02-15T07:43:30.234Z,17.97
2018-02-15T07:45:57.769Z,16.43
2018-02-15T07:48:26.077Z,15.70
2018-02-15T07:50:53.623Z,15.10
2018-02-15T07:53:21.143Z,14.80
2018-02-15T07:55:48.688Z,14.73
2018-02-15T07:58:16.236Z,14.10
2018-02-15T08:00:43.783Z,14.90
2018-02-15T08:03:11.332Z,13.70
2018-02-15T08:05:38.875Z,14.47
2018-02-15T08:08:06.509Z,14.17
2018-02-15T08:10:34.828Z,13.97
2018-02-15T08:13:02.355Z,13.53
2018-02-15T08:15:30.651Z,14.17
2018-02-15T08:17:58.175Z,14.20
2018-02-15T08:20:25.731Z,15.47
2018-02-15T08:22:53.321Z,13.60
2018-02-15T08:25:21.604Z,14.37
2018-02-15T08:27:49.167Z,13.53
2018-02-15T08:30:16.701Z,13.23
2018-02-15T08:32:45.015Z,15.23
2018-02-15T08:35:12.548Z,14.63
2018-02-15T08:37:40.835Z,15.47
2018-02-15T08:40:08.380Z,13.63
2018-02-15T08:42:36.671Z,14.47
2018-02-15T08:45:04.253Z,14.30
2018-02-15T08:47:31.788Z,14.27
2018-02-15T08:49:59.311Z,14.77
2018-02-15T08:52:26.880Z,17.87
2018-02-15T08:54:55.173Z,13.63
2018-02-15T08:57:23.466Z,12.87
2018-02-15T08:59:51.048Z,12.10
2018-02-15T09:02:18.610Z,12.03
2018-02-15T09:04:46.891Z,13.63
2018-02-15T09:07:14.442Z,12.67
2018-02-15T09:09:42.756Z,13.07
2018-02-15T09:12:10.403Z,12.80
2018-02-15T09:14:37.936Z,13.43
2018-02-15T09:17:05.464Z,12.67
2018-02-15T09:19:33.120Z,12.93
2018-02-15T09:22:00.647Z,11.87
2018-02-15T09:24:28.192Z,12.27
2018-02-15T09:26:55.769Z,12.73
2018-02-15T09:29:23.299Z,21.20
2018-02-15T09:31:50.986Z,14.70
2018-02-15T09:34:18.559Z,16.93
2018-02-15T09:36:46.056Z,20.23
2018-02-15T09:39:13.600Z,11.77
2018-02-15T09:41:41.117Z,12.60
2018-02-15T09:44:08.640Z,12.33
2018-02-15T09:46:36.175Z,15.43
2018-02-15T09:49:03.708Z,11.97
2018-02-15T09:51:32.139Z,14.53
2018-02-15T09:53:59.664Z,12.20
2018-02-15T09:56:27.238Z,12.50
2018-02-15T09:58:54.791Z,12.50
2018-02-15T10:01:22.319Z,12.23
2018-02-15T10:03:49.864Z,11.50
2018-02-15T10:06:17.424Z,16.40
2018-02-15T10:08:44.951Z,11.87
2018-02-15T10:11:12.499Z,12.13
2018-02-15T10:13:40.021Z,13.90
2018-02-15T10:16:08.309Z,12.30
2018-02-15T10:18:35.848Z,11.97
2018-02-15T10:21:04.187Z,11.20
2018-02-15T10:23:31.703Z,17.17
2018-02-15T10:25:59.296Z,13.37
2018-02-15T10:28:26.841Z,46.43
2018-02-15T10:30:54.394Z,18.07
2018-02-15T10:33:21.911Z,12.00
2018-02-15T10:35:50.372Z,11.60
2018-02-15T10:38:17.915Z,12.77
2018-02-15T10:40:45.440Z,11.73
2018-02-15T10:43:13.068Z,13.77
2018-02-15T10:45:40.588Z,13.67
2018-02-15T10:48:08.109Z,15.37
2018-02-15T10:50:35.648Z,11.60
2018-02-15T10:53:03.195Z,12.40
2018-02-15T10:55:30.708Z,12.40
2018-02-15T10:57:58.256Z,12.67
2018-02-15T11:00:31.423Z,12.20
2018-02-15T11:03:05.460Z,13.57
2018-02-15T11:05:32.988Z,11.33
2018-02-15T11:08:01.289Z,14.37
2018-02-15T11:10:28.815Z,12.60
2018-02-15T11:12:57.369Z,11.83
2018-02-15T11:15:24.900Z,13.63
2018-02-15T11:17:52.431Z,13.93
2018-02-15T11:20:20.729Z,12.40
2018-02-15T11:22:48.247Z,14.03
2018-02-15T11:25:15.789Z,26.47
2018-02-15T11:27:43.335Z,16.40
2018-02-15T11:30:10.867Z,17.50
2018-02-15T11:32:38.395Z,11.27
2018-02-15T11:35:06.702Z,13.97
2018-02-15T11:37:34.228Z,10.20
2018-02-15T11:40:02.519Z,12.17
2018-02-15T11:42:30.044Z,11.37
2018-02-15T11:44:57.587Z,11.87
2018-02-15T11:47:25.244Z,18.47
2018-02-15T11:49:52.765Z,12.13
2018-02-15T11:52:20.309Z,11.53
2018-02-15T11:54:47.896Z,11.03
2018-02-15T11:57:15.418Z,26.80
2018-02-15T11:59:43.696Z,16.70
2018-02-15T12:02:12.001Z,9.37
2018-02-15T12:04:39.527Z,10.33
2018-02-15T12:07:07.960Z,9.80
2018-02-15T12:09:35.504Z,9.10
2018-02-15T12:12:03.032Z,9.90
2018-02-15T12:14:30.578Z,10.23
2018-02-15T12:16:58.880Z,10.10
2018-02-15T12:19:26.400Z,10.37
2018-02-15T12:21:53.931Z,10.00
2018-02-15T12:24:21.451Z,9.60
2018-02-15T12:26:48.975Z,9.43
2018-02-15T12:29:16.497Z,10.23
2018-02-15T12:31:44.020Z,10.97
2018-02-15T12:34:11.560Z,11.40
2018-02-15T12:36:39.860Z,31.77
2018-02-15T12:39:07.392Z,10.20
2018-02-15T12:41:35.682Z,10.97
2018-02-15T12:44:03.970Z,12.03
2018-02-15T12:46:31.546Z,12.33
2018-02-15T12:48:59.075Z,15.27
2018-02-15T12:51:27.363Z,10.60
2018-02-15T12:53:55.000Z,10.23
2018-02-15T12:56:22.523Z,10.43
2018-02-15T12:58:50.039Z,9.83
2018-02-15T13:01:17.672Z,11.17
2018-02-15T13:03:45.191Z,11.50
2018-02-15T13:06:12.716Z,11.20
2018-02-15T13:08:40.272Z,10.80
2018-02-15T13:11:08.554Z,10.90
2018-02-15T13:13:36.085Z,10.77
2018-02-15T13:16:16.314Z,27.77
2018-02-15T13:18:43.940Z,9.70
2018-02-15T13:21:11.472Z,11.70
2018-02-15T13:23:39.759Z,22.40
2018-02-15T13:26:07.299Z,11.23
2018-02-15T13:28:38.250Z,10.80
2018-02-15T13:31:06.539Z,11.93
2018-02-15T13:33:34.063Z,11.57
2018-02-15T13:36:01.583Z,9.90
2018-02-15T13:38:29.116Z,11.03
2018-02-15T13:40:56.644Z,12.10
2018-02-15T13:43:24.957Z,10.97
2018-02-15T13:45:52.477Z,11.17
2018-02-15T13:48:20.789Z,10.53
2018-02-15T13:50:48.316Z,10.57
2018-02-15T13:53:16.608Z,12.13
2018-02-15T13:55:44.141Z,10.87
2018-02-15T13:58:11.672Z,17.50
2018-02-15T14:00:39.222Z,10.87
2018-02-15T14:03:06.744Z,11.20
2018-02-15T14:05:34.268Z,10.43
2018-02-15T14:08:01.806Z,11.97
2018-02-15T14:10:29.323Z,10.37
2018-02-15T14:12:56.853Z,17.43
2018-02-15T14:15:24.371Z,11.60
2018-02-15T14:17:51.896Z,14.60
2018-02-15T14:20:19.524Z,12.33
2018-02-15T14:22:47.043Z,18.13
2018-02-15T14:25:14.572Z,12.60
2018-02-15T14:27:42.109Z,12.53
2018-02-15T14:30:09.631Z,11.70
2018-02-15T14:32:37.162Z,11.63
2018-02-15T14:35:04.691Z,12.17
2018-02-15T14:37:33.001Z,13.33
2018-02-15T14:40:00.536Z,12.03
2018-02-15T14:42:28.832Z,11.33
2018-02-15T14:44:56.347Z,11.87
2018-02-15T14:47:23.880Z,11.67
2018-02-15T14:49:51.400Z,12.13
2018-02-15T14:52:18.924Z,11.57
2018-02-15T14:54:46.455Z,12.23
2018-02-15T14:57:13.967Z,10.43
2018-02-15T14:59:41.591Z,12.27
2018-02-15T15:02:09.108Z,11.63
2018-02-15T15:04:36.653Z,11.10
2018-02-15T15:07:04.180Z,11.83
2018-02-15T15:09:31.720Z,11.73
2018-02-15T15:11:59.240Z,12.23
2018-02-15T15:14:26.771Z,13.50
2018-02-15T15:16:54.300Z,11.93
2018-02-15T15:19:22.013Z,11.90
2018-02-15T15:21:49.538Z,15.97
2018-02-15T15:24:17.824Z,12.43
2018-02-15T15:26:45.355Z,12.90
2018-02-15T15:29:12.895Z,11.73
2018-02-15T15:31:40.429Z,12.70
2018-02-15T15:34:08.104Z,11.50
2018-02-15T15:36:35.629Z,14.03
2018-02-15T15:39:03.156Z,11.23
2018-02-15T15:41:30.704Z,10.80
2018-02-15T15:43:58.219Z,12.83
2018-02-15T15:46:25.743Z,12.47
2018-02-15T15:48:54.040Z,12.07
2018-02-15T15:51:21.572Z,11.63
2018-02-15T15:53:49.876Z,11.60
2018-02-15T15:56:17.716Z,11.60
2018-02-15T15:58:46.009Z,11.70
2018-02-15T16:01:13.635Z,13.47
2018-02-15T16:03:41.187Z,12.33
2018-02-15T16:06:08.708Z,12.67
2018-02-15T16:08:36.385Z,11.90
2018-02-15T16:11:03.908Z,15.80
2018-02-15T16:13:31.431Z,12.27
2018-02-15T16:15:58.959Z,12.37
2018-02-15T16:18:27.317Z,12.53
2018-02-15T16:20:55.605Z,15.13
2018-02-15T16:23:23.135Z,12.87
2018-02-15T16:25:50.663Z,15.30
2018-02-15T16:28:18.192Z,14.40
2018-02-15T16:30:45.868Z,13.70
2018-02-15T16:33:14.156Z,11.80
2018-02-15T16:35:41.692Z,12.20
2018-02-15T16:38:09.382Z,12.93
2018-02-15T16:40:36.906Z,12.37
2018-02-15T16:43:04.468Z,12.57
2018-02-15T16:45:32.009Z,11.37
2018-02-15T16:47:59.538Z,12.07
2018-02-15T16:50:28.040Z,12.43
2018-02-15T16:52:55.564Z,12.53
2018-02-15T16:55:23.855Z,13.13
2018-02-15T16:57:52.188Z,13.47
2018-02-15T17:00:19.714Z,13.20
2018-02-15T17:02:47.558Z,13.50
2018-02-15T17:05:15.095Z,13.87
2018-02-15T17:07:43.402Z,12.20
2018-02-15T17:10:11.048Z,12.30
2018-02-15T17:12:39.349Z,13.23
2018-02-15T17:15:06.878Z,12.63
2018-02-15T17:17:35.172Z,13.03
2018-02-15T17:20:02.696Z,14.30
2018-02-15T17:22:30.305Z,13.57
2018-02-15T17:24:57.835Z,14.47
2018-02-15T17:27:26.115Z,13.53
2018-02-15T17:29:54.410Z,13.87
2018-02-15T17:32:21.950Z,14.90
2018-02-15T17:34:50.232Z,14.50
2018-02-15T17:37:17.773Z,14.73
2018-02-15T17:39:46.055Z,13.47
2018-02-15T17:42:14.344Z,14.07
2018-02-15T17:44:41.872Z,15.43
2018-02-15T17:47:09.400Z,19.37
2018-02-15T17:49:37.695Z,14.97
2018-02-15T17:52:05.213Z,14.50
2018-02-15T17:54:32.730Z,16.30
2018-02-15T17:57:01.179Z,16.93
2018-02-15T17:59:28.744Z,16.87
2018-02-15T18:01:56.292Z,16.00
2018-02-15T18:04:23.821Z,17.90
2018-02-15T18:06:51.349Z,17.33
2018-02-15T18:09:19.667Z,16.37
2018-02-15T18:11:47.200Z,19.03
2018-02-15T18:14:14.844Z,18.33
2018-02-15T18:16:43.144Z,19.83
2018-02-15T18:19:10.667Z,20.53
2018-02-15T18:21:38.341Z,20.13
2018-02-15T18:24:06.629Z,20.47
2018-02-15T18:26:34.156Z,20.60
2018-02-15T18:29:01.714Z,22.40
2018-02-15T18:31:29.249Z,23.70
2018-02-15T18:33:56.916Z,19.97
2018-02-15T18:36:24.436Z,20.50
2018-02-15T18:38:51.965Z,22.90
2018-02-15T18:41:19.600Z,20.47
2018-02-15T18:43:47.147Z,19.80
2018-02-15T18:46:14.663Z,22.70
2018-02-15T18:48:42.220Z,22.80
2018-02-15T18:51:09.756Z,22.00
2018-02-15T18:53:37.336Z,19.37
2018-02-15T18:56:04.869Z,21.67
2018-02-15T18:58:32.387Z,21.63
2018-02-15T19:00:59.933Z,22.63
2018-02-15T19:03:27.449Z,20.87
2018-02-15T19:05:54.976Z,21.73
2018-02-15T19:08:22.640Z,21.67
2018-02-15T19:10:50.168Z,25.53
2018-02-15T19:13:17.706Z,22.70
2018-02-15T19:15:46.024Z,22.93
2018-02-15T19:18:14.328Z,23.53
2018-02-15T19:20:41.863Z,21.27
2018-02-15T19:23:09.393Z,20.97
2018-02-15T19:25:36.911Z,21.67
2018-02-15T19:28:04.474Z,21.37
2018-02-15T19:30:32.780Z,20.97
2018-02-15T19:33:00.299Z,21.73
2018-02-15T19:35:27.824Z,21.30
2018-02-15T19:37:55.351Z,22.33
2018-02-15T19:40:23.021Z,21.13
2018-02-15T19:42:50.541Z,21.53
2018-02-15T19:45:18.070Z,21.43
2018-02-15T19:47:45.618Z,21.60
2018-02-15T19:50:13.147Z,20.97
2018-02-15T19:52:40.811Z,22.10
2018-02-15T19:55:08.335Z,21.47
2018-02-15T19:57:36.633Z,21.57
2018-02-15T20:00:05.076Z,22.17
2018-02-15T20:02:32.595Z,21.57
2018-02-15T20:05:00.119Z,20.20
2018-02-15T20:07:28.556Z,22.00
2018-02-15T20:09:56.140Z,21.47
2018-02-15T20:12:23.664Z,22.43
2018-02-15T20:14:51.193Z,23.17
2018-02-15T20:17:18.716Z,22.07
2018-02-15T20:19:52.177Z,20.93
2018-02-15T20:22:19.709Z,21.63
2018-02-15T20:24:47.240Z,22.47
2018-02-15T20:27:21.299Z,20.17
2018-02-15T20:29:48.816Z,20.33
2018-02-15T20:32:17.145Z,22.77
2018-02-15T20:34:44.724Z,22.33
2018-02-15T20:37:12.296Z,22.43
2018-02-15T20:39:45.407Z,21.80
2018-02-15T20:42:13.716Z,22.20
2018-02-15T20:44:41.244Z,22.40
2018-02-15T20:47:09.698Z,22.97
2018-02-15T20:49:42.914Z,24.47
2018-02-15T20:52:17.065Z,22.03
2018-02-15T20:54:50.407Z,21.90
2018-02-15T20:57:18.715Z,22.97
2018-02-15T20:59:46.268Z,22.57
2018-02-15T21:02:13.800Z,22.73
2018-02-15T21:04:42.129Z,22.80
2018-02-15T21:07:09.700Z,26.07
2018-02-15T21:09:37.350Z,21.80
2018-02-15T21:12:04.875Z,22.13
2018-02-15T21:14:33.201Z,23.97
2018-02-15T21:17:00.774Z,24.30
2018-02-15T21:19:28.310Z,24.57
2018-02-15T21:21:55.975Z,26.67
2018-02-15T21:24:23.536Z,26.63
2018-02-15T21:26:51.088Z,27.13
2018-02-15T21:29:18.625Z,32.20
2018-02-15T21:31:46.292Z,23.77
2018-02-15T21:34:13.841Z,26.97
2018-02-15T21:36:44.328Z,29.70
2018-02-15T21:39:11.843Z,27.03
2018-02-15T21:41:39.502Z,25.87
2018-02-15T21:44:07.042Z,25.93
2018-02-15T21:46:34.597Z,26.90
2018-02-15T21:49:02.144Z,29.60
2018-02-15T21:51:30.451Z,30.00
2018-02-15T21:53:58.088Z,27.37
2018-02-15T21:56:26.483Z,26.17
2018-02-15T21:58:54.009Z,26.47
2018-02-15T22:01:22.311Z,26.77
2018-02-15T22:03:49.855Z,28.47
2018-02-15T22:06:18.144Z,29.20
2018-02-15T22:08:45.675Z,34.87
2018-02-15T22:11:13.963Z,25.30
2018-02-15T22:13:42.355Z,26.37
2018-02-15T22:16:09.875Z,22.73
2018-02-15T22:18:37.511Z,32.70
2018-02-15T22:21:05.078Z,29.70
2018-02-15T22:23:32.578Z,25.63
2018-02-15T22:26:00.833Z,26.90
2018-02-15T22:28:28.346Z,26.03
2018-02-15T22:30:55.850Z,23.60
2018-02-15T22:33:23.407Z,24.10
2018-02-15T22:35:51.026Z,25.40
2018-02-15T22:38:18.531Z,24.80
2018-02-15T22:40:46.181Z,24.53
2018-02-15T22:43:13.669Z,25.80
2018-02-15T22:45:41.916Z,26.40
2018-02-15T22:48:09.411Z,23.97
2018-02-15T22:50:36.896Z,24.27
2018-02-15T22:53:04.495Z,22.63
2018-02-15T22:55:31.974Z,24.13
2018-02-15T22:58:00.228Z,25.63
2018-02-15T23:00:27.864Z,23.50
2018-02-15T23:02:55.351Z,27.57
2018-02-15T23:05:22.831Z,24.97
2018-02-15T23:07:51.100Z,27.50
2018-02-15T23:10:19.355Z,24.33
2018-02-15T23:12:46.834Z,22.97
2018-02-15T23:15:15.107Z,22.43
2018-02-15T23:17:42.619Z,23.87
2018-02-15T23:20:10.111Z,25.47
2018-02-15T23:22:37.607Z,26.13
2018-02-15T23:25:05.860Z,25.53
2018-02-15T23:27:33.354Z,27.67
2018-02-15T23:30:00.843Z,26.50
2018-02-15T23:32:28.326Z,24.90
2018-02-15T23:34:55.923Z,29.33
2018-02-15T23:37:23.410Z,24.77
2018-02-15T23:39:50.891Z,24.80
2018-02-15T23:42:18.395Z,22.37
2018-02-15T23:44:45.899Z,25.20
2018-02-15T23:47:13.395Z,24.23
2018-02-15T23:49:41.761Z,25.27
2018-02-15T23:52:09.260Z,24.73
2018-02-15T23:54:36.762Z,24.03
2018-02-15T23:57:04.262Z,23.10
2018-02-15T23:59:31.747Z,24.23
